Time;durP1;ratioP1;P1;durP2;ratioP2;P2;SDS_P1;SDS_P2;PMS_P1;PMS_P2;Temp;Humidity;BMP_temperature;BMP_pressure;BME280_temperature;BME280_humidity;BME280_pressure;Samples;Min_cycle;Max_cycle;Signal;HPM_P1;HPM_P2
2022/08/29 00:00:22;;;;;;;4.32;1.55;;;25.00;59.90;;;;;;5049113;28;20017;-68
2022/08/29 00:02:50;;;;;;;2.58;1.42;;;24.90;59.90;;;;;;5034437;28;20080;-68
2022/08/29 00:05:17;;;;;;;2.50;1.35;;;24.90;59.90;;;;;;5034170;28;20017;-67
2022/08/29 00:07:42;;;;;;;3.28;1.65;;;24.90;60.00;;;;;;5041872;28;20020;-67
2022/08/29 00:10:08;;;;;;;2.22;1.20;;;24.90;59.90;;;;;;5055323;28;20021;-68
2022/08/29 00:12:34;;;;;;;1.58;1.30;;;24.90;60.00;;;;;;5053802;28;20029;-68
2022/08/29 00:15:00;;;;;;;3.65;1.77;;;24.90;60.00;;;;;;5037588;28;20052;-68
2022/08/29 00:17:26;;;;;;;1.95;1.40;;;24.90;60.10;;;;;;5055256;28;20052;-68
2022/08/29 00:19:51;;;;;;;1.98;1.52;;;24.90;60.10;;;;;;5053862;28;20025;-68
2022/08/29 00:22:17;;;;;;;5.43;1.65;;;24.90;60.10;;;;;;5054025;28;20013;-68
2022/08/29 00:24:43;;;;;;;2.00;1.23;;;24.90;60.20;;;;;;5055188;28;20032;-68
2022/08/29 00:27:08;;;;;;;3.17;1.25;;;24.90;60.20;;;;;;5054826;28;20056;-68
2022/08/29 00:29:34;;;;;;;2.30;1.40;;;24.90;60.20;;;;;;5055095;28;20055;-68
2022/08/29 00:32:00;;;;;;;2.00;1.30;;;24.90;60.20;;;;;;5053553;28;20045;-68
2022/08/29 00:34:25;;;;;;;3.35;1.50;;;24.90;60.20;;;;;;5054991;28;20057;-68
2022/08/29 00:36:52;;;;;;;1.35;1.10;;;24.90;60.20;;;;;;5054734;28;20504;-68
2022/08/29 00:39:17;;;;;;;2.25;1.48;;;24.90;60.20;;;;;;5054905;28;20018;-68
2022/08/29 00:41:43;;;;;;;2.17;1.52;;;24.90;60.20;;;;;;5053301;28;20040;-68
2022/08/29 00:44:08;;;;;;;1.67;1.13;;;24.90;60.30;;;;;;5053446;28;20029;-68
2022/08/29 00:46:40;;;;;;;4.15;1.40;;;24.90;61.30;;;;;;5053407;28;20438;-68
2022/08/29 00:49:15;;;;;;;3.23;1.40;;;24.90;60.30;;;;;;5054576;28;20067;-68
2022/08/29 00:51:41;;;;;;;3.60;1.20;;;24.90;60.30;;;;;;5037864;28;20333;-68
2022/08/29 00:54:08;;;;;;;2.92;1.10;;;24.90;60.30;;;;;;5037096;28;20056;-68
2022/08/29 00:56:35;;;;;;;2.60;1.30;;;24.90;60.30;;;;;;5053011;28;20021;-68
2022/08/29 00:59:16;;;;;;;3.80;1.40;;;24.90;60.30;;;;;;5036914;28;20017;-68
2022/08/29 01:01:42;;;;;;;2.97;1.67;;;24.90;60.30;;;;;;5035870;28;20029;-68
2022/08/29 01:04:08;;;;;;;3.83;1.42;;;24.90;60.40;;;;;;5033154;28;20033;-68
2022/08/29 01:06:34;;;;;;;4.93;1.63;;;24.80;60.40;;;;;;5034281;28;20036;-68
2022/08/29 01:09:00;;;;;;;2.45;1.45;;;24.90;60.50;;;;;;5050388;28;20057;-68
2022/08/29 01:14:11;;;;;;;3.47;1.45;;;24.80;60.40;;;;;;5052968;28;20403;-68
2022/08/29 01:16:37;;;;;;;2.75;1.38;;;24.80;60.40;;;;;;5052836;28;20029;-68
2022/08/29 01:19:32;;;;;;;2.20;1.23;;;24.80;60.50;;;;;;5036058;28;20029;-68
2022/08/29 01:22:33;;;;;;;2.63;1.52;;;24.80;60.50;;;;;;5052575;28;20040;-68
2022/08/29 01:24:59;;;;;;;3.47;1.40;;;24.80;60.40;;;;;;5053238;28;20040;-68
2022/08/29 01:27:27;;;;;;;2.60;1.30;;;24.80;60.50;;;;;;5036029;28;20029;-68
2022/08/29 01:29:53;;;;;;;2.28;1.52;;;24.80;60.60;;;;;;5035994;28;20029;-68
2022/08/29 01:32:18;;;;;;;1.67;1.23;;;24.80;60.60;;;;;;5052803;28;20024;-68
2022/08/29 01:34:44;;;;;;;3.20;1.30;;;24.80;60.50;;;;;;5052486;28;20025;-68
2022/08/29 01:37:12;;;;;;;1.50;1.23;;;24.80;60.50;;;;;;5053568;28;20017;-68
2022/08/29 01:39:38;;;;;;;2.40;1.30;;;24.80;60.60;;;;;;5053576;28;20021;-68
2022/08/29 01:42:13;;;;;;;4.38;1.63;;;24.80;60.60;;;;;;5052217;28;20017;-68
2022/08/29 01:44:39;;;;;;;2.22;1.40;;;24.80;60.70;;;;;;5036750;28;20035;-68
2022/08/29 01:47:04;;;;;;;1.80;1.20;;;24.80;60.60;;;;;;5052332;28;20096;-68
2022/08/29 01:49:32;;;;;;;3.10;1.17;;;24.80;60.70;;;;;;5052494;28;20491;-68
2022/08/29 01:51:58;;;;;;;1.60;1.30;;;24.80;60.70;;;;;;5052089;28;20127;-68
2022/08/29 01:54:24;;;;;;;1.67;1.33;;;24.80;60.70;;;;;;5051929;28;20120;-68
2022/08/29 01:56:50;;;;;;;1.27;1.10;;;24.80;60.60;;;;;;5051803;28;20091;-68
2022/08/29 01:59:18;;;;;;;2.40;1.20;;;24.80;60.60;;;;;;5035500;28;20443;-68
2022/08/29 02:01:46;;;;;;;2.20;1.40;;;24.80;60.70;;;;;;5018002;28;20109;-68
2022/08/29 02:04:12;;;;;;;2.70;1.08;;;24.80;61.80;;;;;;5032122;28;20079;-68
2022/08/29 02:06:39;;;;;;;3.42;1.52;;;24.80;60.70;;;;;;5032108;28;20030;-68
2022/08/29 02:09:04;;;;;;;2.50;1.42;;;24.80;60.70;;;;;;5050438;28;20029;-68
2022/08/29 02:11:31;;;;;;;3.28;1.38;;;24.80;60.70;;;;;;5052077;28;20025;-68
2022/08/29 02:13:57;;;;;;;2.67;1.27;;;24.80;60.70;;;;;;5052873;28;20029;-68
2022/08/29 02:16:24;;;;;;;3.00;1.35;;;24.80;60.70;;;;;;5035349;28;20055;-68
2022/08/29 02:18:50;;;;;;;1.08;0.93;;;24.80;60.70;;;;;;5051780;28;20021;-68
2022/08/29 02:21:18;;;;;;;2.22;1.35;;;24.80;61.80;;;;;;5052643;28;20062;-68
2022/08/29 02:23:45;;;;;;;1.88;1.23;;;24.80;60.70;;;;;;5052830;28;20017;-68
2022/08/29 02:26:10;;;;;;;2.15;1.40;;;24.80;60.80;;;;;;5051647;28;20021;-68
2022/08/29 02:28:37;;;;;;;2.78;1.50;;;24.80;60.70;;;;;;5052881;28;20158;-68
2022/08/29 02:31:03;;;;;;;2.15;1.30;;;24.70;60.70;;;;;;5052324;28;20048;-68
2022/08/29 02:33:30;;;;;;;2.35;1.25;;;24.80;60.80;;;;;;5051491;28;20045;-68
2022/08/29 02:35:55;;;;;;;2.97;1.23;;;24.70;60.70;;;;;;5034998;28;20095;-68
2022/08/29 02:38:22;;;;;;;2.70;1.90;;;24.70;60.70;;;;;;5051146;28;20055;-68
2022/08/29 02:40:48;;;;;;;2.20;1.38;;;24.70;60.70;;;;;;5052688;28;20016;-68
2022/08/29 02:43:15;;;;;;;1.73;1.35;;;24.70;60.80;;;;;;5052453;28;20100;-68
2022/08/29 02:45:41;;;;;;;4.25;1.92;;;24.70;60.80;;;;;;5052615;28;20024;-68
2022/08/29 02:48:06;;;;;;;1.70;1.13;;;24.70;60.80;;;;;;5034766;28;20414;-68
2022/08/29 02:50:33;;;;;;;2.63;1.23;;;24.70;60.90;;;;;;5052434;28;20053;-68
2022/08/29 02:52:58;;;;;;;2.17;1.20;;;24.70;60.90;;;;;;5050933;28;20031;-68
2022/08/29 02:55:24;;;;;;;2.15;1.50;;;24.70;60.90;;;;;;5052258;28;20119;-68
2022/08/29 02:57:51;;;;;;;1.45;1.00;;;24.70;60.90;;;;;;5034759;28;20056;-68
2022/08/29 03:00:20;;;;;;;3.03;1.00;;;24.70;60.90;;;;;;5045385;28;20022;-68
2022/08/29 03:02:46;;;;;;;2.08;1.30;;;24.70;61.00;;;;;;5031198;28;20546;-68
2022/08/29 03:05:13;;;;;;;1.45;1.20;;;24.70;60.90;;;;;;5031216;28;20026;-68
2022/08/29 03:07:38;;;;;;;2.05;1.35;;;24.70;61.00;;;;;;5036816;28;20066;-68
2022/08/29 03:10:06;;;;;;;1.40;1.23;;;24.70;60.90;;;;;;5050189;28;20103;-68
2022/08/29 03:12:35;;;;;;;2.00;1.27;;;24.70;61.00;;;;;;5050985;28;20021;-68
2022/08/29 03:15:01;;;;;;;1.63;1.17;;;24.60;61.00;;;;;;5050906;28;20032;-68
2022/08/29 03:17:26;;;;;;;2.78;1.60;;;24.70;61.00;;;;;;5050974;28;20399;-68
2022/08/29 03:19:52;;;;;;;1.55;1.30;;;24.70;61.00;;;;;;5052239;28;20032;-68
2022/08/29 03:22:18;;;;;;;2.00;1.38;;;24.70;61.00;;;;;;5051835;28;20029;-68
2022/08/29 03:24:43;;;;;;;2.22;1.10;;;24.60;60.90;;;;;;5052233;28;20029;-68
2022/08/29 03:27:09;;;;;;;1.67;1.25;;;24.60;61.00;;;;;;5051870;28;20025;-68
2022/08/29 03:29:36;;;;;;;2.08;1.20;;;24.70;61.10;;;;;;5052237;28;20025;-68
2022/08/29 03:32:02;;;;;;;2.00;1.40;;;24.60;61.10;;;;;;5050628;28;20106;-67
2022/08/29 03:34:27;;;;;;;1.67;1.00;;;24.60;61.10;;;;;;5051883;28;20120;-67
2022/08/29 03:36:53;;;;;;;1.58;1.30;;;24.60;61.10;;;;;;5050557;28;20043;-67
2022/08/29 03:39:19;;;;;;;1.42;1.08;;;24.60;61.10;;;;;;5051918;28;20021;-67
2022/08/29 03:41:45;;;;;;;2.00;1.20;;;24.60;61.10;;;;;;5050898;28;20033;-68
2022/08/29 03:44:11;;;;;;;1.85;1.13;;;24.60;62.10;;;;;;5050465;28;20099;-68
2022/08/29 03:46:38;;;;;;;2.25;1.20;;;24.60;61.10;;;;;;5050775;28;20048;-67
2022/08/29 03:49:05;;;;;;;1.73;1.13;;;24.60;61.10;;;;;;5051887;28;20028;-68
2022/08/29 03:51:32;;;;;;;1.35;1.17;;;24.60;61.20;;;;;;5051639;28;20027;-67
2022/08/29 03:53:58;;;;;;;1.02;0.90;;;24.60;61.10;;;;;;5050653;28;20033;-67
2022/08/29 03:56:24;;;;;;;1.30;1.20;;;24.60;61.20;;;;;;5050535;28;20027;-67
2022/08/29 03:58:49;;;;;;;2.65;1.08;;;24.60;61.20;;;;;;5050626;28;20086;-67
2022/08/29 04:01:17;;;;;;;1.98;1.30;;;24.60;61.20;;;;;;5037905;28;20026;-68
2022/08/29 04:03:43;;;;;;;2.85;1.30;;;24.60;61.20;;;;;;5030597;28;20044;-68
2022/08/29 04:06:08;;;;;;;1.20;1.10;;;24.60;61.20;;;;;;5030364;28;20404;-67
2022/08/29 04:08:34;;;;;;;1.90;1.00;;;24.60;61.20;;;;;;5044181;28;20021;-68
2022/08/29 04:11:00;;;;;;;3.33;1.17;;;24.60;61.20;;;;;;5051574;28;20033;-68
2022/08/29 04:13:25;;;;;;;1.75;0.98;;;24.60;61.20;;;;;;5051363;28;20040;-67
2022/08/29 04:15:52;;;;;;;3.33;1.00;;;24.60;61.20;;;;;;5051565;28;20028;-68
2022/08/29 04:18:18;;;;;;;2.03;1.05;;;24.60;61.20;;;;;;5051567;28;20452;-67
2022/08/29 04:20:43;;;;;;;1.27;1.02;;;24.50;61.20;;;;;;5052244;28;20155;-68
2022/08/29 04:23:12;;;;;;;1.50;1.15;;;24.50;61.20;;;;;;5053767;28;20025;-67
2022/08/29 04:25:38;;;;;;;1.58;1.10;;;24.50;61.30;;;;;;5055333;28;20021;-67
2022/08/29 04:28:09;;;;;;;2.65;1.25;;;24.50;61.20;;;;;;5054877;28;20039;-68
2022/08/29 04:30:35;;;;;;;1.67;1.30;;;24.50;61.20;;;;;;5053734;28;20041;-67
2022/08/29 04:33:01;;;;;;;1.63;1.00;;;24.50;61.30;;;;;;5053552;28;20036;-68
2022/08/29 04:35:26;;;;;;;2.55;1.10;;;24.50;61.30;;;;;;5054817;28;20095;-68
2022/08/29 04:37:52;;;;;;;1.52;1.02;;;24.50;61.30;;;;;;5054799;28;20033;-68
2022/08/29 04:40:19;;;;;;;1.38;0.95;;;24.50;61.30;;;;;;5053644;28;20021;-69
2022/08/29 04:42:48;;;;;;;1.65;0.95;;;24.50;61.30;;;;;;5037214;28;20021;-68
2022/08/29 04:45:16;;;;;;;1.25;1.00;;;24.50;61.30;;;;;;5054585;28;20028;-68
2022/08/29 04:47:42;;;;;;;3.10;1.00;;;24.50;61.30;;;;;;5054442;28;20032;-67
2022/08/29 04:50:09;;;;;;;2.28;1.05;;;24.50;61.30;;;;;;5053430;28;20416;-68
2022/08/29 04:52:35;;;;;;;2.35;1.02;;;24.50;61.30;;;;;;5053386;28;20044;-68
2022/08/29 04:55:02;;;;;;;3.22;1.10;;;24.40;61.40;;;;;;5053271;28;20498;-67
2022/08/29 04:57:28;;;;;;;1.67;1.20;;;24.50;61.30;;;;;;5053339;28;20013;-68
2022/08/29 04:59:54;;;;;;;1.55;1.35;;;24.40;61.40;;;;;;5051986;28;20048;-68
2022/08/29 05:02:20;;;;;;;1.42;1.20;;;24.50;61.40;;;;;;5032943;28;20472;-68
2022/08/29 05:04:51;;;;;;;1.77;1.13;;;24.40;61.30;;;;;;5034427;28;20064;-67
2022/08/29 05:07:20;;;;;;;2.78;1.00;;;24.40;61.40;;;;;;5037666;28;20024;-68
2022/08/29 05:09:49;;;;;;;1.65;1.00;;;24.40;61.40;;;;;;5054257;28;20483;-68
2022/08/29 05:12:15;;;;;;;1.52;0.93;;;24.40;61.50;;;;;;5053117;28;20032;-68
2022/08/29 05:14:40;;;;;;;1.58;1.00;;;24.40;61.40;;;;;;5053963;28;20029;-67
2022/08/29 05:17:06;;;;;;;2.72;1.15;;;24.40;61.50;;;;;;5052775;28;20029;-68
2022/08/29 05:19:32;;;;;;;3.10;1.33;;;24.40;61.50;;;;;;5051542;28;20033;-67
2022/08/29 05:21:58;;;;;;;5.72;1.10;;;24.40;61.50;;;;;;5043267;28;20108;-68
2022/08/29 05:24:23;;;;;;;2.58;1.10;;;24.40;61.60;;;;;;5033390;28;20060;-68
2022/08/29 05:26:50;;;;;;;2.83;1.02;;;24.40;61.60;;;;;;5016877;28;20025;-68
2022/08/29 05:29:16;;;;;;;2.17;1.35;;;24.40;61.50;;;;;;5016430;28;20146;-68
2022/08/29 05:31:41;;;;;;;2.28;1.30;;;24.40;61.60;;;;;;5032790;28;20511;-67
2022/08/29 05:34:09;;;;;;;4.40;1.08;;;24.40;61.60;;;;;;5014246;28;20512;-68
2022/08/29 05:36:35;;;;;;;5.75;0.90;;;24.40;61.70;;;;;;5032661;28;20071;-67
2022/08/29 05:39:00;;;;;;;4.45;0.82;;;24.40;61.60;;;;;;5033930;28;20025;-67
2022/08/29 05:41:26;;;;;;;1.67;1.20;;;24.40;61.70;;;;;;5032523;28;20104;-67
2022/08/29 05:43:53;;;;;;;2.65;1.00;;;24.40;61.70;;;;;;5033781;28;20030;-67
2022/08/29 05:46:18;;;;;;;2.22;1.20;;;24.40;61.80;;;;;;5033389;28;20028;-67
2022/08/29 05:48:44;;;;;;;2.70;1.30;;;24.40;61.80;;;;;;5015923;28;20038;-68
2022/08/29 05:51:20;;;;;;;3.47;1.15;;;24.40;61.80;;;;;;5033436;28;20025;-68
2022/08/29 05:53:45;;;;;;;1.50;0.82;;;24.40;61.80;;;;;;5031704;28;20030;-68
2022/08/29 05:56:11;;;;;;;2.90;1.00;;;24.40;61.70;;;;;;5015956;28;20028;-68
2022/08/29 05:58:37;;;;;;;2.03;1.13;;;24.40;61.70;;;;;;5033559;28;20575;-67
2022/08/29 06:01:03;;;;;;;1.88;1.13;;;24.40;61.80;;;;;;5031950;28;20036;-67
2022/08/29 06:03:28;;;;;;;1.58;0.98;;;24.40;61.80;;;;;;5033173;28;20074;-67
2022/08/29 06:05:54;;;;;;;2.25;1.10;;;24.40;61.80;;;;;;5033443;28;20025;-68
2022/08/29 06:08:20;;;;;;;4.47;1.27;;;24.40;61.80;;;;;;5044719;28;20021;-68
2022/08/29 06:10:46;;;;;;;4.15;1.25;;;24.40;61.80;;;;;;5051995;28;20045;-68
2022/08/29 06:13:12;;;;;;;2.70;1.02;;;24.40;61.90;;;;;;5035267;28;20488;-68
2022/08/29 06:15:37;;;;;;;1.40;1.00;;;24.40;61.80;;;;;;5051484;28;20096;-68
2022/08/29 06:18:03;;;;;;;0.75;0.70;;;24.40;61.80;;;;;;5044775;28;20499;-68
2022/08/29 06:20:29;;;;;;;1.20;1.00;;;24.40;61.90;;;;;;5033431;28;20018;-68
2022/08/29 06:22:54;;;;;;;1.10;0.98;;;24.40;61.90;;;;;;5015768;28;20029;-68
2022/08/29 06:25:20;;;;;;;4.25;1.13;;;24.30;61.90;;;;;;5033546;28;20021;-68
2022/08/29 06:27:46;;;;;;;2.83;1.08;;;24.40;62.00;;;;;;5041117;28;20037;-68
2022/08/29 06:30:11;;;;;;;4.57;1.08;;;24.40;62.00;;;;;;5032999;28;20828;-68
2022/08/29 06:32:38;;;;;;;3.00;1.10;;;24.30;61.90;;;;;;5033154;28;20033;-68
2022/08/29 06:35:04;;;;;;;2.00;0.90;;;24.40;62.10;;;;;;5031819;28;20021;-67
2022/08/29 06:37:30;;;;;;;3.70;1.00;;;24.40;62.10;;;;;;5031898;28;20403;-68
2022/08/29 06:39:56;;;;;;;4.57;1.40;;;24.40;62.00;;;;;;5031905;28;20097;-68
2022/08/29 06:42:23;;;;;;;3.60;1.35;;;24.40;61.00;;;;;;5033398;28;20372;-68
2022/08/29 06:44:49;;;;;;;8.00;1.73;;;24.20;60.10;;;;;;5031681;28;20048;-67
2022/08/29 06:47:15;;;;;;;9.10;1.80;;;24.00;60.00;;;;;;5035987;28;20079;-67
2022/08/29 06:49:40;;;;;;;5.55;2.00;;;23.90;59.90;;;;;;5043540;28;20534;-67
2022/08/29 06:52:06;;;;;;;7.55;2.10;;;23.80;59.80;;;;;;5051263;28;20036;-68
2022/08/29 06:54:32;;;;;;;8.68;2.25;;;23.70;60.00;;;;;;5051161;28;20029;-67
2022/08/29 06:56:58;;;;;;;5.80;2.40;;;23.60;59.90;;;;;;5052396;28;20053;-67
2022/08/29 06:59:24;;;;;;;8.88;2.65;;;23.60;59.90;;;;;;5050872;28;20476;-67
2022/08/29 07:01:50;;;;;;;6.82;2.45;;;23.60;60.00;;;;;;5043539;28;20036;-67
2022/08/29 07:04:15;;;;;;;5.65;2.15;;;23.50;60.30;;;;;;5051833;28;20399;-68
2022/08/29 07:06:41;;;;;;;4.70;1.92;;;23.50;60.30;;;;;;5044222;28;20164;-68
2022/08/29 07:09:07;;;;;;;7.32;1.90;;;23.40;60.40;;;;;;5049180;28;20029;-67
2022/08/29 07:11:32;;;;;;;6.78;2.72;;;23.30;60.50;;;;;;5052221;28;20502;-68
2022/08/29 07:14:00;;;;;;;7.85;2.47;;;23.40;60.60;;;;;;5050734;28;20024;-67
2022/08/29 07:16:26;;;;;;;9.13;2.90;;;23.30;60.60;;;;;;5050978;28;20072;-68
2022/08/29 07:18:51;;;;;;;8.55;2.20;;;23.30;60.70;;;;;;5051162;28;20526;-68
2022/08/29 07:21:18;;;;;;;9.95;2.67;;;23.30;60.80;;;;;;5050780;28;20108;-67
2022/08/29 07:23:44;;;;;;;9.30;2.13;;;23.30;60.90;;;;;;5052070;28;20074;-67
2022/08/29 07:26:13;;;;;;;6.63;2.00;;;23.20;61.00;;;;;;5052140;28;20025;-67
2022/08/29 07:28:39;;;;;;;8.32;2.55;;;23.20;61.30;;;;;;5051870;28;20017;-67
2022/08/29 07:31:05;;;;;;;9.38;2.50;;;23.20;61.50;;;;;;5050773;28;20128;-67
2022/08/29 07:33:31;;;;;;;8.80;2.50;;;23.20;61.50;;;;;;5051887;28;20021;-67
2022/08/29 07:35:57;;;;;;;8.27;2.20;;;23.10;61.60;;;;;;5050703;28;20086;-67
2022/08/29 07:38:23;;;;;;;9.55;2.53;;;23.20;61.60;;;;;;5034370;28;20431;-67
2022/08/29 07:40:59;;;;;;;12.85;2.67;;;23.20;62.00;;;;;;5050870;28;20049;-67
2022/08/29 07:43:25;;;;;;;24.55;4.07;;;23.20;62.00;;;;;;5050196;28;20021;-68
2022/08/29 07:45:51;;;;;;;16.77;3.92;;;23.20;62.10;;;;;;5048666;28;20033;-68
2022/08/29 07:48:16;;;;;;;19.35;3.58;;;23.30;62.00;;;;;;5047806;28;20024;-68
2022/08/29 07:50:42;;;;;;;13.95;3.75;;;23.20;62.20;;;;;;5049852;28;20025;-68
2022/08/29 07:53:08;;;;;;;17.10;3.10;;;23.20;62.20;;;;;;5050011;28;20017;-68
2022/08/29 07:55:35;;;;;;;12.85;4.03;;;23.20;62.40;;;;;;5051569;28;20087;-68
2022/08/29 07:58:02;;;;;;;14.18;4.07;;;23.20;62.50;;;;;;5054215;28;20017;-68
2022/08/29 08:00:28;;;;;;;17.73;3.20;;;23.20;63.60;;;;;;5048236;28;20028;-67
2022/08/29 08:02:54;;;;;;;11.43;3.38;;;23.20;62.70;;;;;;5034535;28;20018;-68
2022/08/29 08:05:19;;;;;;;15.10;3.10;;;23.20;62.70;;;;;;5034263;28;20030;-68
2022/08/29 08:07:45;;;;;;;14.35;3.30;;;23.20;62.80;;;;;;5042104;28;20013;-68
2022/08/29 08:10:11;;;;;;;13.25;4.05;;;23.20;62.90;;;;;;5055539;28;20056;-68
2022/08/29 08:12:36;;;;;;;14.18;3.25;;;23.20;62.80;;;;;;5055002;28;20063;-67
2022/08/29 08:15:02;;;;;;;9.07;2.58;;;23.20;62.80;;;;;;5055321;28;20491;-68
2022/08/29 08:17:28;;;;;;;9.63;2.90;;;23.20;62.60;;;;;;5055217;28;20045;-68
2022/08/29 08:19:54;;;;;;;16.50;3.13;;;23.20;62.70;;;;;;5055205;28;20456;-68
2022/08/29 08:22:19;;;;;;;11.43;2.80;;;23.20;62.50;;;;;;5055229;28;20019;-68
2022/08/29 08:24:45;;;;;;;9.18;2.47;;;23.20;62.70;;;;;;5054871;28;20449;-68
2022/08/29 08:27:11;;;;;;;9.82;2.60;;;23.20;62.60;;;;;;5055011;28;20024;-68
2022/08/29 08:29:36;;;;;;;7.95;2.17;;;23.20;62.50;;;;;;5054909;28;20477;-68
2022/08/29 08:32:02;;;;;;;9.93;2.47;;;23.20;62.40;;;;;;5054996;28;20045;-67
2022/08/29 08:34:29;;;;;;;7.28;2.45;;;23.20;63.50;;;;;;5054856;28;20057;-68
2022/08/29 08:36:54;;;;;;;6.63;2.50;;;23.20;62.40;;;;;;5055017;28;20104;-68
2022/08/29 08:39:20;;;;;;;7.53;2.13;;;23.20;62.40;;;;;;5053831;28;20120;-67
2022/08/29 08:41:55;;;;;;;6.32;2.25;;;23.30;62.30;;;;;;5036999;28;20498;-68
2022/08/29 08:44:21;;;;;;;8.07;2.70;;;23.30;62.30;;;;;;5053812;28;20100;-68
2022/08/29 08:46:49;;;;;;;6.85;2.08;;;23.20;62.20;;;;;;5054617;28;20455;-68
2022/08/29 08:49:46;;;;;;;7.85;2.40;;;23.30;62.50;;;;;;5053952;28;20379;-68
2022/08/29 08:52:22;;;;;;;5.63;1.80;;;23.30;62.30;;;;;;5053803;28;20021;-67
2022/08/29 08:54:54;;;;;;;6.90;2.05;;;23.30;62.20;;;;;;5053064;28;20502;-67
2022/08/29 08:57:20;;;;;;;4.47;1.80;;;23.30;62.20;;;;;;5053414;28;20387;-68
2022/08/29 08:59:49;;;;;;;4.97;1.77;;;23.30;62.10;;;;;;5035520;28;20031;-67
2022/08/29 09:02:32;;;;;;;11.45;2.67;;;23.30;62.10;;;;;;5033371;28;20017;-68
2022/08/29 09:05:10;;;;;;;3.30;1.45;;;23.30;61.90;;;;;;5034597;28;20025;-68
2022/08/29 09:07:58;;;;;;;6.13;1.88;;;23.30;62.00;;;;;;5038752;28;20021;-68
2022/08/29 09:10:42;;;;;;;8.32;2.10;;;23.30;62.10;;;;;;5054216;28;20036;-68
2022/08/29 09:13:37;;;;;;;3.85;1.90;;;23.30;61.90;;;;;;5054343;28;20053;-67
2022/08/29 09:16:06;;;;;;;4.28;1.60;;;23.30;61.80;;;;;;5054067;28;20032;-68
2022/08/29 09:18:40;;;;;;;6.35;1.80;;;23.30;61.70;;;;;;5036742;28;20588;-67
2022/08/29 09:21:11;;;;;;;4.88;1.58;;;23.30;61.70;;;;;;5053049;28;20554;-68
2022/08/29 09:23:44;;;;;;;6.13;1.73;;;23.30;61.70;;;;;;5052813;28;20025;-68
2022/08/29 09:26:11;;;;;;;3.03;1.75;;;23.30;62.30;;;;;;5052875;28;20018;-67
2022/08/29 09:28:36;;;;;;;4.10;1.88;;;23.30;61.70;;;;;;5036000;28;20017;-68
2022/08/29 09:31:32;;;;;;;4.78;1.75;;;23.30;61.70;;;;;;5052650;28;20507;-67
2022/08/29 09:34:04;;;;;;;6.28;1.80;;;23.40;61.80;;;;;;5053691;28;20029;-68
2022/08/29 09:36:49;;;;;;;6.25;1.60;;;23.30;61.70;;;;;;5053666;28;20025;-68
2022/08/29 09:39:20;;;;;;;6.18;2.08;;;23.30;61.80;;;;;;5052511;28;20024;-68
2022/08/29 09:41:49;;;;;;;5.60;1.63;;;23.30;61.70;;;;;;5053542;28;20028;-68
2022/08/29 09:44:21;;;;;;;3.92;1.60;;;23.30;61.70;;;;;;5052636;28;20062;-67
2022/08/29 09:47:13;;;;;;;4.38;1.90;;;23.40;62.00;;;;;;5053555;28;20036;-68
2022/08/29 09:49:40;;;;;;;4.77;1.40;;;23.40;62.00;;;;;;5052436;28;20113;-67
2022/08/29 09:52:12;;;;;;;2.78;1.52;;;23.40;62.20;;;;;;5035737;28;20090;-68
2022/08/29 09:54:38;;;;;;;3.92;1.75;;;23.40;62.10;;;;;;5052099;28;20060;-67
2022/08/29 09:57:06;;;;;;;2.83;1.58;;;23.40;62.00;;;;;;5053530;28;20476;-68
2022/08/29 09:59:34;;;;;;;2.08;1.27;;;23.40;61.90;;;;;;5053375;28;20021;-67
2022/08/29 10:02:17;;;;;;;4.20;1.48;;;23.40;62.30;;;;;;5032370;28;20030;-67
2022/08/29 10:04:44;;;;;;;5.43;1.30;;;23.40;62.50;;;;;;5033179;28;20021;-68
2022/08/29 10:07:13;;;;;;;3.47;1.45;;;23.40;62.40;;;;;;5033905;28;20033;-68
2022/08/29 10:09:39;;;;;;;2.70;1.23;;;23.40;62.50;;;;;;5052114;28;20021;-67
2022/08/29 10:12:11;;;;;;;3.95;1.63;;;23.40;62.40;;;;;;5053302;28;20036;-67
2022/08/29 10:14:42;;;;;;;3.55;1.75;;;23.40;62.50;;;;;;5035610;28;20053;-67
2022/08/29 10:20:10;;;;;;;3.25;1.30;;;23.40;62.40;;;;;;5038363;28;20116;-67
2022/08/29 10:22:43;;;;;;;3.75;1.60;;;23.40;61.90;;;;;;5035074;28;20025;-68
2022/08/29 10:25:15;;;;;;;3.78;1.40;;;23.40;62.30;;;;;;5053036;28;20487;-68
2022/08/29 10:28:06;;;;;;;4.05;1.50;;;23.50;62.30;;;;;;5051715;28;20035;-67
2022/08/29 10:30:41;;;;;;;3.55;1.48;;;23.50;62.20;;;;;;5051280;28;20048;-68
2022/08/29 10:33:18;;;;;;;2.15;1.20;;;23.50;62.30;;;;;;5052926;28;20025;-68
2022/08/29 10:36:09;;;;;;;5.13;1.42;;;23.50;62.20;;;;;;5051171;28;20083;-68
2022/08/29 10:38:45;;;;;;;1.58;1.17;;;23.50;61.50;;;;;;5052743;28;20083;-67
2022/08/29 10:41:25;;;;;;;2.70;1.20;;;23.50;62.20;;;;;;5051411;28;20021;-68
2022/08/29 10:44:15;;;;;;;3.10;1.10;;;23.50;62.10;;;;;;5051448;28;20024;-67
2022/08/29 10:47:19;;;;;;;5.88;1.45;;;23.60;62.10;;;;;;5051413;28;20067;-68
2022/08/29 10:50:04;;;;;;;2.03;1.10;;;23.50;61.30;;;;;;5052412;28;20029;-68
2022/08/29 10:52:34;;;;;;;2.72;1.23;;;23.50;62.00;;;;;;5051506;28;20018;-68
2022/08/29 10:55:12;;;;;;;3.67;1.10;;;23.50;61.90;;;;;;5051176;28;20028;-68
2022/08/29 10:57:59;;;;;;;4.88;1.40;;;23.50;61.90;;;;;;5051441;28;20021;-68
2022/08/29 11:00:34;;;;;;;2.35;1.10;;;23.50;61.80;;;;;;5045560;28;20028;-68
2022/08/29 11:03:21;;;;;;;2.63;1.38;;;23.50;61.80;;;;;;5031269;28;20024;-67
2022/08/29 11:06:00;;;;;;;1.90;1.02;;;23.50;61.80;;;;;;5030889;28;20025;-68
2022/08/29 11:09:07;;;;;;;4.63;1.48;;;23.50;61.80;;;;;;5027298;28;20086;-68
2022/08/29 11:11:33;;;;;;;3.25;1.20;;;23.50;61.60;;;;;;5051232;28;20057;-67
2022/08/29 11:14:01;;;;;;;2.67;1.20;;;23.50;61.70;;;;;;5034559;28;20522;-68
2022/08/29 11:16:40;;;;;;;2.30;1.00;;;23.60;61.70;;;;;;5034806;28;20109;-68
2022/08/29 11:19:17;;;;;;;3.42;1.30;;;23.50;61.20;;;;;;5034964;28;20075;-67
2022/08/29 11:21:53;;;;;;;2.80;1.27;;;23.50;61.20;;;;;;5034618;28;20025;-68
2022/08/29 11:24:19;;;;;;;1.73;1.30;;;23.50;61.30;;;;;;5051099;28;20064;-68
2022/08/29 11:26:51;;;;;;;3.65;1.23;;;23.60;61.50;;;;;;5034204;28;20086;-68
2022/08/29 11:29:32;;;;;;;3.38;1.00;;;23.50;61.00;;;;;;5050975;28;20075;-68
2022/08/29 11:32:41;;;;;;;3.22;1.25;;;23.60;61.20;;;;;;5039350;28;20045;-67
2022/08/29 11:35:22;;;;;;;2.40;1.13;;;23.60;61.00;;;;;;5059740;28;20037;-67
2022/08/29 11:37:59;;;;;;;5.05;1.30;;;23.60;61.10;;;;;;5073835;28;20033;-68
2022/08/29 11:40:41;;;;;;;2.47;1.33;;;23.60;61.00;;;;;;5074000;28;20037;-68
2022/08/29 11:43:07;;;;;;;2.83;1.27;;;23.60;61.00;;;;;;5057146;28;20036;-68
2022/08/29 11:45:36;;;;;;;3.47;1.60;;;23.60;60.80;;;;;;5040613;28;21158;-67
2022/08/29 11:48:35;;;;;;;1.55;1.10;;;23.60;60.70;;;;;;5056945;28;20056;-67
2022/08/29 11:51:36;;;;;;;5.15;1.30;;;23.60;60.90;;;;;;5056818;28;20028;-68
2022/08/29 11:54:23;;;;;;;4.50;1.40;;;23.60;60.90;;;;;;5073374;28;20044;-67
2022/08/29 11:57:11;;;;;;;2.72;1.30;;;23.60;61.00;;;;;;5073421;28;20032;-67
2022/08/29 11:59:48;;;;;;;1.70;1.35;;;23.60;61.00;;;;;;5073566;28;20479;-68
2022/08/29 12:02:29;;;;;;;2.20;1.27;;;23.60;61.00;;;;;;5053597;28;20063;-68
2022/08/29 12:05:01;;;;;;;3.47;1.30;;;23.60;61.00;;;;;;5053409;28;20047;-68
2022/08/29 12:07:43;;;;;;;1.40;1.00;;;23.60;61.10;;;;;;5040969;28;20091;-67
2022/08/29 12:10:22;;;;;;;3.67;1.30;;;23.60;61.10;;;;;;5056873;28;20032;-68
2022/08/29 12:12:51;;;;;;;2.75;1.30;;;23.60;61.20;;;;;;5039596;28;20033;-68
2022/08/29 12:15:26;;;;;;;3.45;1.30;;;23.70;61.20;;;;;;5034410;28;20144;-67
2022/08/29 12:17:59;;;;;;;2.28;1.00;;;23.70;61.20;;;;;;5035079;28;20488;-68
2022/08/29 12:20:30;;;;;;;4.05;1.50;;;23.60;61.20;;;;;;5034372;28;20032;-68
2022/08/29 12:23:02;;;;;;;4.18;1.52;;;23.60;61.10;;;;;;5035350;28;20025;-67
2022/08/29 12:25:53;;;;;;;4.20;1.45;;;23.70;61.00;;;;;;5035337;28;20103;-67
2022/08/29 12:28:26;;;;;;;1.95;1.33;;;23.70;60.90;;;;;;5034185;28;20021;-68
2022/08/29 12:30:58;;;;;;;4.13;1.27;;;23.70;60.80;;;;;;5035044;28;20521;-68
2022/08/29 12:33:45;;;;;;;2.05;1.10;;;23.70;60.90;;;;;;5035142;28;20053;-68
2022/08/29 12:36:48;;;;;;;2.40;1.33;;;23.70;60.80;;;;;;5035071;28;20113;-68
2022/08/29 12:39:38;;;;;;;2.28;1.38;;;23.70;60.60;;;;;;5035180;28;20029;-67
2022/08/29 12:42:48;;;;;;;3.60;1.40;;;23.70;60.50;;;;;;5034902;28;20025;-68
2022/08/29 12:45:23;;;;;;;4.10;1.50;;;23.70;60.70;;;;;;5034773;28;20034;-68
2022/08/29 12:48:00;;;;;;;6.28;1.65;;;23.80;60.50;;;;;;5017242;28;20021;-68
2022/08/29 12:50:32;;;;;;;2.08;1.52;;;23.80;60.30;;;;;;5033728;28;20376;-68
2022/08/29 12:53:04;;;;;;;3.38;1.67;;;23.80;60.70;;;;;;5017992;28;20102;-67
2022/08/29 12:55:39;;;;;;;2.70;1.23;;;23.80;60.60;;;;;;5017271;28;20120;-67
2022/08/29 12:58:05;;;;;;;2.47;1.50;;;23.80;60.10;;;;;;5033577;28;20488;-68
2022/08/29 13:00:31;;;;;;;4.40;1.30;;;23.80;59.90;;;;;;5033163;28;20014;-67
2022/08/29 13:03:07;;;;;;;4.65;1.60;;;23.90;60.20;;;;;;5033361;28;20044;-68
2022/08/29 13:05:34;;;;;;;5.85;1.50;;;23.80;59.90;;;;;;5033442;28;20404;-67